SHSR weather

Edificio Torre San Ramón Heliport
Santiago, Santiago Metropolitan Region, Chile

Public forecast

Using degrees Celsius for public forecast. Weather courtesy of forecast.io.

METAR (pilot weather report)

Closest report is Eulogio Sánchez Airport, 3.7 nm (6.9 km) SE. Retrieved 2019/07/17 18:00 UTC (2 hours ago):

SCTB 171800Z 22003KT 4000 HZ SCT150 BKN210 15/06 Q1021

TAF (pilot weather forecast)

Closest forecast is Comodoro Arturo Merino Benítez International Airport, 9.2 nm (17.1 km) W. Retrieved 2019/07/17 18:00 UTC (2 hours ago):

TAF COR SCEL 171615Z 1718/1818 18008KT 8000 FEW170 BKN200 TX16/1719Z TN02/1810Z BECMG 1801/1803 15004KT FEW140 BKN180 TEMPO 1808/1815 VRB02KT 4000 BR SCT008 BECMG 1816/1818 18006KT 8000 NSC